• Join FlightAware (Why Join?)
  • Login
  • US Flag 
01:33PM EST


 

Airport Tracker/Info


-or-


 

Live Flight TrackerFlight Track Log ✈ TMC806 ✈ 09-Jun-2013 ✈ KLBF - KSDL

Flight Track Log - Related Links

Times and Time Zones

All times are in EDT time to prevent confusion due to time zone crossing. See the TMC806 flight status page for this flight to view local times or setup timezone preferences in your user account.

Time Position Orientation Groundspeed Altitude Reporting Facility
EDT Latitude Longitude Course Direction KTS MPH feet Rate Location/Type
03:10PM 41.1372 -100.7050 234° Southwest 170 196 4,200  Level Denver Center
03:11PM 41.1069 -100.7622 235° Southwest 220 253 6,800 2,580 Climbing Denver Center
03:12PM 41.0639 -100.8489 237° Southwest 250 288 9,600 2,880 Climbing Denver Center
03:13PM 41.0203 -100.9322 235° Southwest 285 328 12,800 2,640 Climbing Denver Center
03:14PM 40.7535 -101.3839 234° Southwest  Level FlightAware Approximate
03:14PM 40.9683 -101.0336 236° Southwest 298 343 15,100  Level Denver Center
03:15PM 40.6903 -101.4979 234° Southwest  Level FlightAware Approximate
03:15PM 40.9200 -101.1286 236° Southwest 320 368 17,400  Level Denver Center
03:16PM 40.8614 -101.2411 235° Southwest 332 382 19,600 1,980 Climbing Denver Center
03:17PM 40.8083 -101.3431 236° Southwest 348 400 21,600 2,040 Climbing Denver Center
03:18PM 40.7461 -101.4608 235° Southwest 351 404 23,900 1,860 Climbing Denver Center
03:19PM 40.6917 -101.5644 235° Southwest 358 412 25,500 1,740 Climbing Denver Center
03:20PM 40.6250 -101.6906 235° Southwest 375 432 27,500 1,740 Climbing Denver Center
03:21PM 40.5675 -101.7992 235° Southwest 378 435 29,200 1,560 Climbing Denver Center
03:22PM 40.4981 -101.9297 235° Southwest 390 449 30,800 1,380 Climbing Denver Center
03:23PM 40.4347 -102.0444 234° Southwest 403 464 32,100 1,320 Climbing Denver Center
03:24PM 40.3622 -102.1806 235° Southwest 407 468 33,600 1,140 Climbing Denver Center
03:25PM 40.2997 -102.2975 235° Southwest 410 472 34,500 660 Climbing Denver Center
03:26PM 40.2344 -102.4172 234° Southwest 422 486 35,000 240 Climbing Denver Center
03:27PM 40.1556 -102.5614 234° Southwest 437 503 35,000 180 Level Denver Center
03:28PM 40.0842 -102.6950 235° Southwest 446 513 35,400 660 Climbing Denver Center
03:29PM 40.0128 -102.8242 234° Southwest 441 507 36,400 960 Climbing Denver Center
03:30PM 39.9444 -102.9514 235° Southwest 430 495 37,400 960 Climbing Denver Center
03:31PM 39.8614 -103.1000 234° Southwest 423 487 38,500 960 Climbing Denver Center
03:32PM 39.7936 -103.2217 234° Southwest 418 481 39,400 720 Climbing Denver Center
03:33PM 39.7275 -103.3417 234° Southwest 410 472 40,000 240 Climbing Denver Center
03:34PM 39.6597 -103.4619 234° Southwest 411 473 40,000  Level Denver Center
03:35PM 39.5917 -103.5856 234° Southwest 419 482 40,000  Level Denver Center
03:36PM 39.5222 -103.7067 233° Southwest 418 481 40,000  Level Denver Center
03:38PM 39.4542 -103.8283 234° Southwest 417 480 40,000  Level Denver Center
03:39PM 39.3803 -103.9772 237° Southwest 409 471 40,000  Level Denver Center
03:40PM 39.3175 -104.1017 237° Southwest 410 472 40,000  Level Denver Center
03:41PM 39.2567 -104.2292 238° Southwest 415 478 40,000  Level Denver Center
03:42PM 39.1953 -104.3533 237° Southwest 411 473 40,000  Level Denver Center
03:43PM 39.1317 -104.4806 237° Southwest 419 482 40,000  Level Denver Center
03:44PM 39.0692 -104.6075 238° Southwest 417 480 40,000  Level Denver Center
03:45PM 39.0061 -104.7339 237° Southwest 418 481 40,000  Level Denver Center
03:46PM 38.9322 -104.8825 237° Southwest 408 470 40,000  Level Denver Center
03:47PM 38.8689 -105.0089 237° Southwest 418 481 40,000  Level Denver Center
03:48PM 38.8058 -105.1342 237° Southwest 419 482 40,000  Level Denver Center
03:49PM 38.7417 -105.2606 237° Southwest 421 484 40,000  Level Denver Center
03:50PM 38.6783 -105.3850 237° Southwest 419 482 40,000  Level Denver Center
03:51PM 38.6136 -105.5108 237° Southwest 423 487 40,000  Level Denver Center
03:52PM 38.5489 -105.6369 237° Southwest 425 489 40,000  Level Denver Center
03:53PM 38.4711 -105.7886 237° Southwest 424 488 40,000  Level Denver Center
03:54PM 38.4092 -105.9078 236° Southwest 427 491 40,000  Level Denver Center
03:55PM 38.3361 -106.0492 237° Southwest 428 493 40,000  Level Denver Center
03:56PM 38.2744 -106.1681 237° Southwest 430 495 40,000  Level Denver Center
03:57PM 38.2092 -106.2911 236° Southwest 426 490 40,000  Level Denver Center
03:58PM 38.1431 -106.4150 236° Southwest 422 486 40,000  Level Denver Center
03:59PM 38.0678 -106.5597 237° Southwest 423 487 40,000  Level Denver Center
04:00PM 38.0050 -106.6781 236° Southwest 422 486 40,000  Level Denver Center
04:01PM 37.9319 -106.8158 236° Southwest 421 484 40,000  Level Denver Center
04:02PM 37.8689 -106.9333 236° Southwest 422 486 40,000  Level Denver Center
04:03PM 37.7981 -107.0656 236° Southwest 420 483 40,000  Level Denver Center
04:04PM 37.7342 -107.1819 235° Southwest 421 484 40,000  Level Denver Center
04:05PM 37.6603 -107.3206 236° Southwest 424 488 40,000  Level Denver Center
04:06PM 37.5969 -107.4367 235° Southwest 421 484 40,000  Level Denver Center
04:07PM 37.5217 -107.5733 235° Southwest 425 489 40,000  Level Denver Center
04:08PM 37.4586 -107.6894 236° Southwest 420 483 40,000  Level Denver Center
04:10PM 37.3839 -107.8256 235° Southwest 422 486 40,000  Level Denver Center
04:11PM 37.3206 -107.9414 236° Southwest 421 484 40,000  Level Denver Center
04:12PM 37.2478 -108.0753 236° Southwest 416 479 40,000  Level Denver Center
04:13PM 37.1833 -108.1900 235° Southwest 420 483 40,000  Level Denver Center
04:14PM 37.1086 -108.3236 235° Southwest 418 481 40,000  Level Denver Center
04:15PM 37.0444 -108.4394 235° Southwest 422 486 40,000  Level Denver Center
04:16PM 36.9589 -108.5911 235° Southwest 419 482 40,000  Level Denver Center
04:17PM 36.8950 -108.7067 235° Southwest 421 484 40,000  Level Denver Center
04:18PM 36.8194 -108.8406 235° Southwest 423 487 40,000  Level Denver Center
04:19PM 36.7544 -108.9536 234° Southwest 420 483 40,000  Level Denver Center
04:20PM 36.6797 -109.0881 235° Southwest 423 487 40,000  Level Denver Center
04:21PM 36.6147 -109.2003 234° Southwest 422 486 40,000  Level Denver Center
04:22PM 36.5389 -109.3325 235° Southwest 422 486 40,000  Level Denver Center
04:23PM 36.4744 -109.4461 235° Southwest 421 484 40,000  Level Denver Center
04:24PM 36.3981 -109.5764 234° Southwest 420 483 40,000  Level Denver Center
04:25PM 36.3344 -109.6881 235° Southwest 416 479 40,000 -300 Level Denver Center
04:26PM 36.2586 -109.8194 234° Southwest 418 481 39,400 -780 Descending Denver Center
04:27PM 36.1922 -109.9322 234° Southwest 422 486 38,500 -960 Descending Denver Center
04:28PM 36.1153 -110.0611 234° Southwest 419 482 37,500 -900 Descending Denver Center
04:29PM 36.0506 -110.1719 234° Southwest 413 475 36,700 -840 Descending Denver Center
04:30PM 35.9844 -110.2847 234° Southwest 408 470 35,800 -900 Descending Denver Center
04:31PM 35.9183 -110.3958 234° Southwest 404 465 34,900 -900 Descending Denver Center
04:32PM 35.8592 -110.4903 232° Southwest 400 460 34,200 -540 Descending Albuquerque Center
04:33PM 35.7864 -110.6161 235° Southwest 404 465 34,000 -120 Descending Albuquerque Center
04:34PM 35.7161 -110.7289 233° Southwest 423 487 34,000  Level Albuquerque Center
04:35PM 35.6461 -110.8436 233° Southwest 434 499 34,000  Level Albuquerque Center
04:36PM 35.5653 -110.9797 234° Southwest 440 506 34,000 -240 Level Albuquerque Center
04:37PM 35.4956 -111.0958 234° Southwest 441 507 33,600 -960 Descending Albuquerque Center
04:38PM 35.4164 -111.2261 233° Southwest 429 494 32,100 -1,380 Descending Albuquerque Center
04:39PM 35.3286 -111.3144 219° Southwest 428 493 30,800 -1,320 Descending Albuquerque Center
04:40PM 35.2228 -111.3781 206° Southwest 439 505 29,500 -1,320 Descending Albuquerque Center
04:41PM 35.1122 -111.4369 204° Southwest 436 502 28,100 -2,040 Descending Albuquerque Center
04:43PM 34.9808 -111.5081 204° Southwest 432 497 25,400 -2,460 Descending Albuquerque Center
04:44PM 34.8758 -111.5647 204° Southwest 419 482 23,100 -2,100 Descending Albuquerque Center
04:45PM 34.7744 -111.6181 203° Southwest 405 466 21,100 -1,980 Descending Albuquerque Center
04:46PM 34.6775 -111.6708 204° Southwest 388 447 19,100 -1,800 Descending Albuquerque Center
04:47PM 34.5831 -111.7206 203° Southwest 377 434 17,400 -1,800 Descending Albuquerque Center
04:48PM 34.4919 -111.7689 204° Southwest 363 418 15,400 -1,680 Descending Albuquerque Center
04:49PM 34.4056 -111.8144 204° Southwest 346 398 14,000 -1,500 Descending Albuquerque Center
04:50PM 34.3039 -111.8672 203° Southwest 334 384 12,400 -1,500 Descending Albuquerque Center
04:51PM 34.2242 -111.9094 204° Southwest 321 369 11,000 -840 Descending Albuquerque Center
04:52PM 34.1450 -111.9242 189° South 295 339 10,700 -960 Descending Albuquerque Center
04:53PM 34.0633 -111.9297 183° South 298 343 9,100 -1,620 Descending Albuquerque Center
04:54PM 33.9853 -111.9211 175° South 287 330 7,400 -1,020 Descending Albuquerque Center
04:55PM 33.9039 -111.9022 169° South 250 288 7,000 -300 Descending Albuquerque Center
04:56PM 33.8375 -111.8864 169° South 245 282 6,900 -540 Descending Albuquerque Center
04:57PM 33.7769 -111.8722 169° South 225 259 5,900 -1,140 Descending Albuquerque Center
04:58PM 33.7261 -111.8603 169° South 191 220 4,600 -1,260 Descending Albuquerque Center
04:59PM 33.6856 -111.8550 174° South 166 191 3,400 -1,260 Descending Albuquerque Center
05:00PM 33.6458 -111.8828 210° Southwest 146 168 2,100 -960 Descending Albuquerque Center
05:01PM 33.6244 -111.9100 227° Southwest 139 160 1,500 -600 Descending Albuquerque Center